Time;durP1;ratioP1;P1;durP2;ratioP2;P2;SDS_P1;SDS_P2;PMS_P1;PMS_P2;Temp;Humidity;BMP_temperature;BMP_pressure;BME280_temperature;BME280_humidity;BME280_pressure;Samples;Min_cycle;Max_cycle;Signal;HPM_P1;HPM_P2
2022/11/25 00:02:18;;;;;;;6.50;2.40;;;9.90;90.80;;;;;;4982878;28;20034;-75
2022/11/25 00:04:44;;;;;;;5.28;2.13;;;9.80;90.90;;;;;;4988409;28;20037;-77
2022/11/25 00:07:10;;;;;;;9.65;2.60;;;9.80;90.90;;;;;;4980428;28;20031;-74
2022/11/25 00:09:36;;;;;;;7.80;2.28;;;9.80;91.00;;;;;;4976516;28;20030;-74
2022/11/25 00:12:01;;;;;;;10.00;2.33;;;9.70;91.10;;;;;;4987495;28;20030;-76
2022/11/25 00:14:27;;;;;;;5.85;1.50;;;9.70;91.20;;;;;;4990116;28;20050;-74
2022/11/25 00:16:52;;;;;;;7.70;1.77;;;9.60;91.30;;;;;;4996804;28;20038;-75
2022/11/25 00:19:18;;;;;;;6.97;1.65;;;9.60;91.30;;;;;;4985240;28;20529;-75
2022/11/25 00:21:44;;;;;;;4.10;1.67;;;9.60;91.30;;;;;;4993390;28;20045;-74
2022/11/25 00:24:13;;;;;;;5.45;2.03;;;9.60;91.30;;;;;;4992911;28;20058;-75
2022/11/25 00:26:39;;;;;;;6.88;2.30;;;9.60;91.40;;;;;;4993308;28;20034;-76
2022/11/25 00:29:06;;;;;;;9.68;2.92;;;9.60;91.40;;;;;;4991020;28;20069;-75
2022/11/25 00:31:34;;;;;;;5.03;1.85;;;9.50;91.60;;;;;;4985965;28;20034;-74
2022/11/25 00:34:00;;;;;;;7.50;1.77;;;9.50;91.80;;;;;;4986869;28;20065;-74
2022/11/25 00:36:31;;;;;;;6.15;2.15;;;9.50;91.80;;;;;;4982264;28;20122;-74
2022/11/25 00:38:59;;;;;;;6.80;2.25;;;9.40;92.00;;;;;;4985651;28;20077;-75
2022/11/25 00:46:57;;;;;;;9.70;2.58;;;9.40;92.20;;;;;;4992166;28;20081;-74
2022/11/25 00:49:23;;;;;;;5.40;1.75;;;9.40;92.30;;;;;;4989068;28;20050;-76
2022/11/25 00:51:49;;;;;;;9.73;3.40;;;9.40;92.30;;;;;;4996787;28;20037;-74
2022/11/25 00:54:15;;;;;;;4.90;2.00;;;9.30;92.30;;;;;;4991687;28;20524;-77
2022/11/25 00:56:41;;;;;;;7.72;2.20;;;9.40;92.30;;;;;;5001096;28;20034;-75
2022/11/25 00:59:07;;;;;;;5.75;2.00;;;9.40;92.20;;;;;;4994161;28;20065;-77
2022/11/25 01:01:33;;;;;;;6.00;1.83;;;9.30;92.30;;;;;;4996002;28;20053;-75
2022/11/25 01:03:59;;;;;;;6.28;2.30;;;9.30;92.30;;;;;;4993163;28;20038;-74
2022/11/25 01:06:24;;;;;;;8.25;2.58;;;9.30;92.30;;;;;;4992579;28;20046;-74
2022/11/25 01:08:51;;;;;;;18.17;4.95;;;9.40;92.30;;;;;;4991547;28;20114;-75
2022/11/25 01:11:19;;;;;;;7.70;2.65;;;9.30;92.20;;;;;;4995111;28;20030;-75
2022/11/25 01:13:45;;;;;;;5.55;1.45;;;9.30;92.30;;;;;;4989752;28;20451;-74
2022/11/25 01:16:17;;;;;;;5.18;2.13;;;9.30;92.30;;;;;;4988057;28;20061;-74
2022/11/25 01:18:43;;;;;;;7.70;2.47;;;9.30;92.30;;;;;;4985675;28;20031;-73
2022/11/25 01:21:12;;;;;;;7.95;2.85;;;9.30;92.40;;;;;;4990087;28;20053;-74
2022/11/25 01:23:38;;;;;;;7.78;2.35;;;9.30;92.30;;;;;;4982459;28;20022;-73
2022/11/25 01:26:06;;;;;;;7.55;2.70;;;9.20;92.30;;;;;;4988771;28;20038;-74
2022/11/25 01:28:32;;;;;;;12.70;4.65;;;9.20;92.40;;;;;;4991254;28;20094;-73
2022/11/25 01:31:08;;;;;;;13.77;5.63;;;9.30;92.50;;;;;;4991680;28;20104;-73
2022/11/25 01:33:34;;;;;;;10.80;4.07;;;9.20;92.40;;;;;;4994725;28;20399;-74
2022/11/25 01:36:05;;;;;;;8.30;3.38;;;9.20;92.40;;;;;;4997444;28;20026;-73
2022/11/25 01:38:32;;;;;;;7.22;1.90;;;9.10;92.50;;;;;;4993922;28;20466;-74
2022/11/25 01:40:58;;;;;;;5.13;2.17;;;9.10;92.50;;;;;;4994963;28;20085;-73
2022/11/25 01:43:25;;;;;;;6.78;1.80;;;9.20;92.60;;;;;;4993323;28;20030;-74
2022/11/25 01:45:54;;;;;;;7.72;2.28;;;9.20;92.60;;;;;;4990772;28;20034;-74
2022/11/25 01:48:35;;;;;;;5.60;1.80;;;9.10;92.60;;;;;;4994271;28;20048;-77
2022/11/25 01:51:01;;;;;;;5.35;2.10;;;9.10;92.70;;;;;;4992558;28;20117;-74
2022/11/25 01:53:27;;;;;;;4.80;1.67;;;9.10;92.60;;;;;;4994544;28;20112;-75
2022/11/25 01:56:01;;;;;;;6.13;1.85;;;9.10;92.60;;;;;;4991314;28;20506;-73
2022/11/25 01:58:32;;;;;;;4.75;1.52;;;9.00;92.60;;;;;;4984985;28;20557;-73
2022/11/25 02:00:58;;;;;;;3.92;1.60;;;9.00;92.60;;;;;;4986715;28;20467;-76
2022/11/25 02:03:31;;;;;;;5.47;1.40;;;9.00;92.70;;;;;;4984064;28;20118;-74
2022/11/25 02:06:20;;;;;;;4.00;1.70;;;8.90;92.70;;;;;;4990692;28;20035;-74
2022/11/25 02:09:00;;;;;;;6.88;1.90;;;8.90;92.70;;;;;;4993908;28;20046;-76
2022/11/25 02:11:29;;;;;;;7.03;2.00;;;8.90;92.80;;;;;;4993509;28;20033;-76
2022/11/25 02:13:56;;;;;;;5.57;1.70;;;8.80;92.80;;;;;;4990944;28;20026;-74
2022/11/25 02:16:22;;;;;;;6.50;2.22;;;8.80;92.70;;;;;;4986874;28;20042;-74
2022/11/25 02:18:49;;;;;;;6.32;1.92;;;8.80;92.70;;;;;;5006635;28;20063;-77
2022/11/25 02:21:19;;;;;;;8.60;1.98;;;8.70;92.80;;;;;;4986671;28;20046;-74
2022/11/25 02:23:54;;;;;;;8.10;2.15;;;8.80;92.90;;;;;;4995849;28;20026;-74
2022/11/25 02:26:20;;;;;;;9.02;2.20;;;8.80;92.90;;;;;;4993429;28;20370;-76
2022/11/25 02:28:46;;;;;;;6.55;1.90;;;8.80;93.00;;;;;;4999318;28;20479;-74
2022/11/25 02:31:11;;;;;;;5.80;2.17;;;8.80;93.00;;;;;;4991461;28;20046;-74
2022/11/25 02:33:37;;;;;;;7.93;2.20;;;8.80;93.00;;;;;;4989374;28;20697;-74
2022/11/25 02:36:11;;;;;;;6.10;1.88;;;8.80;93.10;;;;;;4995808;28;20490;-76
2022/11/25 02:38:44;;;;;;;7.35;2.40;;;8.80;93.10;;;;;;4986230;28;20517;-77
2022/11/25 02:41:13;;;;;;;10.60;2.60;;;8.80;93.20;;;;;;4990844;28;20042;-74
2022/11/25 02:43:40;;;;;;;8.02;2.50;;;8.80;93.40;;;;;;4986536;28;20387;-75
2022/11/25 02:46:14;;;;;;;10.45;2.70;;;8.90;93.40;;;;;;4987379;28;20481;-75
2022/11/25 02:48:41;;;;;;;6.40;2.33;;;9.00;93.30;;;;;;4985239;28;20038;-75
2022/11/25 02:51:11;;;;;;;10.40;2.80;;;9.00;93.40;;;;;;4990306;28;20417;-74
2022/11/25 02:53:37;;;;;;;10.65;3.03;;;9.00;93.40;;;;;;4995744;28;20033;-75
2022/11/25 02:56:03;;;;;;;10.50;2.83;;;9.00;93.50;;;;;;4987701;28;20034;-74
2022/11/25 02:58:28;;;;;;;10.77;2.83;;;9.10;93.40;;;;;;4986767;28;20050;-74
2022/11/25 03:00:54;;;;;;;9.63;2.83;;;9.10;93.30;;;;;;4986031;28;20132;-78
2022/11/25 03:03:20;;;;;;;11.07;2.88;;;9.10;93.20;;;;;;4983589;28;20034;-77
2022/11/25 03:05:46;;;;;;;14.18;2.78;;;9.20;93.10;;;;;;4992771;28;20035;-75
2022/11/25 03:08:11;;;;;;;10.57;2.88;;;9.10;93.00;;;;;;4983738;28;20456;-75
2022/11/25 03:10:37;;;;;;;14.35;2.90;;;9.20;92.90;;;;;;4986277;28;20124;-75
2022/11/25 03:13:04;;;;;;;13.23;2.75;;;9.20;92.90;;;;;;4990182;28;20121;-74
2022/11/25 03:15:30;;;;;;;13.07;3.25;;;9.20;92.80;;;;;;4983471;28;20121;-76
2022/11/25 03:17:56;;;;;;;10.30;3.33;;;9.20;92.70;;;;;;4986069;28;20168;-76
2022/11/25 03:20:22;;;;;;;13.18;3.47;;;9.20;92.50;;;;;;4989563;28;20104;-74
2022/11/25 03:22:48;;;;;;;11.75;3.13;;;9.30;92.50;;;;;;4992932;28;20082;-74
2022/11/25 03:25:14;;;;;;;9.63;2.97;;;9.20;92.40;;;;;;4990021;28;20054;-74
2022/11/25 03:27:40;;;;;;;9.57;2.72;;;9.20;92.30;;;;;;4983872;28;20113;-74
2022/11/25 03:30:11;;;;;;;9.05;2.58;;;9.20;92.30;;;;;;4990442;28;20058;-74
2022/11/25 03:32:37;;;;;;;10.18;3.00;;;9.20;92.30;;;;;;4983249;28;20041;-74
2022/11/25 03:35:03;;;;;;;11.75;2.70;;;9.20;92.30;;;;;;4987459;28;20034;-74
2022/11/25 03:37:29;;;;;;;8.82;2.53;;;9.10;92.10;;;;;;4983081;28;20057;-74
2022/11/25 03:39:55;;;;;;;8.48;2.60;;;9.20;92.20;;;;;;4991406;28;20343;-74
2022/11/25 03:42:21;;;;;;;9.93;2.55;;;9.20;92.20;;;;;;4989501;28;20053;-75
2022/11/25 03:44:46;;;;;;;8.50;2.40;;;9.10;92.10;;;;;;4997399;28;20374;-74
2022/11/25 03:47:12;;;;;;;10.68;3.05;;;9.10;92.00;;;;;;4991179;28;20030;-77
2022/11/25 03:49:38;;;;;;;12.35;2.92;;;9.10;91.80;;;;;;4996595;28;20058;-76
2022/11/25 03:52:03;;;;;;;8.27;2.50;;;9.10;91.80;;;;;;4984102;28;20054;-74
2022/11/25 03:54:29;;;;;;;9.23;3.05;;;9.10;91.80;;;;;;4987998;28;20363;-74
2022/11/25 03:56:55;;;;;;;8.40;2.60;;;9.00;91.70;;;;;;4988679;28;20030;-74
2022/11/25 03:59:21;;;;;;;11.70;2.83;;;9.00;91.60;;;;;;4983662;28;21058;-75
2022/11/25 04:01:46;;;;;;;11.13;2.65;;;8.90;91.60;;;;;;4985303;28;20046;-74
2022/11/25 04:04:12;;;;;;;8.10;2.53;;;9.00;91.70;;;;;;4984765;28;20038;-74
2022/11/25 04:06:38;;;;;;;8.77;2.47;;;8.80;91.60;;;;;;4986273;28;20034;-74
2022/11/25 04:09:05;;;;;;;9.82;2.70;;;8.80;91.70;;;;;;4988054;28;20077;-78
2022/11/25 04:14:15;;;;;;;10.10;2.80;;;8.80;91.80;;;;;;4993673;28;20431;-74
2022/11/25 04:16:41;;;;;;;9.77;2.70;;;8.90;91.90;;;;;;4988132;28;20046;-74
2022/11/25 04:19:06;;;;;;;9.27;2.50;;;8.90;91.80;;;;;;4985049;28;20026;-75
2022/11/25 04:21:32;;;;;;;11.48;2.85;;;8.90;91.80;;;;;;4988077;28;20482;-75
2022/11/25 04:23:58;;;;;;;12.27;3.22;;;8.90;91.80;;;;;;4994995;28;20064;-74
2022/11/25 04:26:24;;;;;;;7.18;3.00;;;8.90;91.70;;;;;;4990209;28;20121;-74
2022/11/25 04:28:49;;;;;;;10.48;2.83;;;8.90;91.80;;;;;;4996646;28;20150;-75
2022/11/25 04:31:15;;;;;;;10.10;3.40;;;8.90;91.70;;;;;;4992195;28;20472;-74
2022/11/25 04:33:41;;;;;;;8.75;3.00;;;8.90;91.70;;;;;;4994918;28;20030;-74
2022/11/25 04:36:07;;;;;;;10.43;2.67;;;8.90;91.70;;;;;;4993984;28;20073;-75
2022/11/25 04:38:33;;;;;;;8.13;2.60;;;8.90;91.70;;;;;;4989892;28;20035;-75
2022/11/25 04:40:58;;;;;;;6.78;2.50;;;8.90;91.70;;;;;;4994220;28;20046;-75
2022/11/25 04:43:24;;;;;;;11.10;3.45;;;8.90;91.70;;;;;;4996239;28;20026;-74
2022/11/25 04:45:51;;;;;;;9.52;3.08;;;8.80;91.70;;;;;;4994423;28;20057;-76
2022/11/25 04:48:17;;;;;;;5.80;2.83;;;8.70;91.70;;;;;;4991727;28;20080;-74
2022/11/25 04:50:43;;;;;;;10.25;2.70;;;8.70;91.70;;;;;;5002320;28;20043;-75
2022/11/25 04:53:09;;;;;;;10.27;2.50;;;8.70;91.70;;;;;;4990972;28;20060;-74
2022/11/25 04:55:35;;;;;;;8.80;2.53;;;8.60;91.50;;;;;;4988220;28;20066;-74
2022/11/25 04:58:00;;;;;;;6.03;2.00;;;8.60;91.60;;;;;;4996941;28;20382;-74
2022/11/25 05:00:26;;;;;;;8.10;2.17;;;8.50;91.60;;;;;;4993175;28;20026;-75
2022/11/25 05:02:52;;;;;;;10.63;2.50;;;8.50;91.60;;;;;;4995396;28;20046;-77
2022/11/25 05:05:18;;;;;;;8.23;2.45;;;8.40;91.60;;;;;;4987678;28;20141;-74
2022/11/25 05:07:43;;;;;;;7.28;2.30;;;8.40;91.70;;;;;;5004877;28;20031;-75
2022/11/25 05:10:09;;;;;;;5.35;2.50;;;8.30;91.70;;;;;;4994278;28;20217;-78
2022/11/25 05:12:35;;;;;;;6.53;2.22;;;8.30;91.70;;;;;;4994865;28;20049;-78
2022/11/25 05:15:01;;;;;;;9.68;2.65;;;8.20;91.80;;;;;;5001304;28;20048;-75
2022/11/25 05:17:30;;;;;;;6.68;2.42;;;8.20;91.80;;;;;;4984885;28;20163;-73
2022/11/25 05:19:57;;;;;;;5.97;2.20;;;8.20;91.70;;;;;;4991588;28;20081;-74
2022/11/25 05:22:25;;;;;;;8.45;3.10;;;8.10;91.80;;;;;;4986777;28;20046;-76
2022/11/25 05:24:52;;;;;;;7.32;2.50;;;8.10;91.90;;;;;;4985571;28;20033;-74
2022/11/25 05:27:20;;;;;;;8.25;2.53;;;8.10;91.90;;;;;;4986096;28;20115;-76
2022/11/25 05:29:45;;;;;;;6.78;2.20;;;8.10;91.90;;;;;;4998171;28;20045;-74
2022/11/25 05:32:11;;;;;;;9.60;2.30;;;8.10;92.00;;;;;;4978168;28;20074;-75
2022/11/25 05:34:37;;;;;;;6.68;2.50;;;8.10;92.00;;;;;;4985373;28;20030;-75
2022/11/25 05:37:03;;;;;;;10.77;2.97;;;8.10;92.00;;;;;;4983307;28;20035;-74
2022/11/25 05:39:29;;;;;;;13.02;2.90;;;8.10;92.00;;;;;;4979336;28;20030;-74
2022/11/25 05:41:55;;;;;;;10.25;2.50;;;8.10;92.10;;;;;;5000383;28;20166;-74
2022/11/25 05:44:21;;;;;;;12.75;3.10;;;8.10;92.20;;;;;;4987022;28;20018;-74
2022/11/25 05:46:47;;;;;;;10.20;2.83;;;8.10;92.40;;;;;;4985391;28;20031;-79
2022/11/25 05:49:14;;;;;;;8.10;3.17;;;8.20;92.50;;;;;;4988558;28;20042;-74
2022/11/25 05:51:40;;;;;;;9.57;2.97;;;8.20;92.60;;;;;;4980155;28;20026;-76
2022/11/25 05:54:06;;;;;;;10.63;3.33;;;8.30;92.60;;;;;;4989467;28;20034;-79
2022/11/25 05:56:32;;;;;;;10.20;3.55;;;8.30;92.60;;;;;;4980695;28;20050;-78
2022/11/25 05:58:59;;;;;;;14.18;3.85;;;8.20;92.60;;;;;;4988642;28;20038;-74
2022/11/25 06:01:24;;;;;;;10.50;3.35;;;8.20;92.70;;;;;;4986264;28;20038;-75
2022/11/25 06:03:50;;;;;;;8.15;3.30;;;8.30;92.70;;;;;;4983405;28;20503;-73
2022/11/25 06:06:17;;;;;;;10.27;3.90;;;8.20;92.70;;;;;;4979983;28;20046;-76
2022/11/25 06:08:43;;;;;;;14.20;4.10;;;8.20;92.80;;;;;;4990316;28;20124;-79
2022/11/25 06:11:12;;;;;;;10.70;3.95;;;8.30;92.80;;;;;;4992401;28;20469;-76
2022/11/25 06:13:39;;;;;;;13.30;4.35;;;8.30;92.70;;;;;;4990375;28;20098;-74
2022/11/25 06:16:14;;;;;;;10.48;3.65;;;8.30;92.60;;;;;;4987027;28;20034;-75
2022/11/25 06:18:40;;;;;;;11.60;4.38;;;8.20;92.60;;;;;;4986166;28;20038;-75
2022/11/25 06:21:06;;;;;;;9.90;3.80;;;8.20;92.60;;;;;;4989452;28;20370;-76
2022/11/25 06:23:33;;;;;;;12.07;4.75;;;8.20;92.60;;;;;;4987411;28;20031;-76
2022/11/25 06:26:12;;;;;;;10.60;3.83;;;8.20;92.60;;;;;;4986515;28;20064;-75
2022/11/25 06:28:38;;;;;;;12.43;4.07;;;8.20;92.70;;;;;;4988733;28;20064;-75
2022/11/25 06:31:05;;;;;;;10.65;4.40;;;8.20;92.70;;;;;;4986176;28;20058;-76
2022/11/25 06:33:31;;;;;;;11.57;4.75;;;8.20;92.70;;;;;;4989811;28;21422;-75
2022/11/25 06:35:57;;;;;;;12.10;4.57;;;8.20;92.70;;;;;;4991335;28;20490;-75
2022/11/25 06:38:22;;;;;;;11.57;4.88;;;8.20;92.60;;;;;;4991746;28;20042;-76
2022/11/25 06:40:48;;;;;;;11.20;4.40;;;8.20;92.60;;;;;;5008238;28;20038;-77
2022/11/25 06:43:14;;;;;;;12.52;4.40;;;8.20;92.50;;;;;;4987143;28;20038;-77
2022/11/25 06:45:39;;;;;;;12.85;4.28;;;8.20;92.40;;;;;;4995199;28;20066;-74
2022/11/25 06:48:05;;;;;;;15.32;5.63;;;8.20;92.40;;;;;;4989724;28;20489;-75
2022/11/25 06:50:31;;;;;;;12.40;4.63;;;8.20;92.50;;;;;;4988711;28;20030;-76
2022/11/25 06:52:58;;;;;;;18.05;5.50;;;8.20;92.60;;;;;;4985456;28;20034;-76
2022/11/25 06:55:24;;;;;;;15.60;5.00;;;8.20;92.60;;;;;;4985535;28;20148;-76
2022/11/25 06:57:50;;;;;;;10.45;5.03;;;8.20;92.70;;;;;;4984671;28;20468;-76
2022/11/25 07:00:16;;;;;;;13.10;5.55;;;8.30;92.70;;;;;;4984179;28;20070;-75
2022/11/25 07:02:42;;;;;;;15.35;5.72;;;8.30;92.70;;;;;;4983275;28;20071;-75
2022/11/25 07:05:08;;;;;;;17.98;6.43;;;8.40;92.70;;;;;;4981135;28;20023;-76
2022/11/25 07:07:33;;;;;;;18.05;6.60;;;8.30;92.70;;;;;;4987053;28;20703;-75
2022/11/25 07:09:59;;;;;;;16.70;7.20;;;8.40;92.70;;;;;;4984159;28;20027;-74
2022/11/25 07:12:24;;;;;;;19.52;8.02;;;8.40;92.80;;;;;;4985702;28;20122;-76
2022/11/25 07:14:50;;;;;;;24.92;8.60;;;8.40;92.80;;;;;;4985400;28;20372;-75
2022/11/25 07:17:16;;;;;;;18.85;9.18;;;8.50;92.80;;;;;;4984842;28;20122;-75
2022/11/25 07:19:44;;;;;;;23.77;10.00;;;8.50;93.00;;;;;;4979579;28;20046;-75
2022/11/25 07:22:09;;;;;;;19.27;9.38;;;8.60;93.10;;;;;;4978852;28;20385;-76
2022/11/25 07:24:36;;;;;;;21.20;9.93;;;8.60;93.10;;;;;;4983834;28;20432;-75
2022/11/25 07:27:04;;;;;;;16.10;8.57;;;8.60;93.10;;;;;;4986088;28;20022;-75
2022/11/25 07:29:30;;;;;;;17.65;8.80;;;8.60;93.10;;;;;;4986754;28;20045;-75
2022/11/25 07:31:56;;;;;;;15.95;7.57;;;8.50;93.10;;;;;;4985876;28;20031;-75
2022/11/25 07:34:22;;;;;;;18.95;7.50;;;8.50;93.10;;;;;;4981243;28;20058;-75
2022/11/25 07:36:49;;;;;;;20.67;7.88;;;8.50;93.10;;;;;;4983931;28;20117;-75
2022/11/25 07:39:18;;;;;;;14.27;6.93;;;8.50;93.10;;;;;;4987836;28;20835;-74
2022/11/25 07:41:44;;;;;;;19.77;6.72;;;8.50;93.10;;;;;;4992173;28;20044;-74
2022/11/25 07:44:12;;;;;;;14.30;6.22;;;8.50;93.00;;;;;;4981214;28;20395;-76
2022/11/25 07:46:47;;;;;;;15.82;6.13;;;8.50;93.00;;;;;;4982532;28;20134;-73
2022/11/25 07:49:15;;;;;;;17.48;6.20;;;8.50;93.10;;;;;;4984703;28;20053;-73
2022/11/25 07:51:46;;;;;;;12.95;6.32;;;8.50;93.00;;;;;;4984988;28;20033;-74
2022/11/25 07:54:12;;;;;;;19.80;6.68;;;8.40;92.90;;;;;;4982159;28;20161;-75
2022/11/25 07:56:39;;;;;;;25.17;11.55;;;8.40;93.00;;;;;;4986655;28;20532;-74
2022/11/25 07:59:07;;;;;;;28.98;18.88;;;8.50;93.00;;;;;;4991712;28;20031;-77
2022/11/25 08:01:32;;;;;;;20.02;10.52;;;8.40;93.10;;;;;;4990618;28;20383;-76
2022/11/25 08:03:58;;;;;;;24.92;13.25;;;8.50;93.10;;;;;;4987608;28;20030;-74
2022/11/25 08:06:27;;;;;;;22.38;12.27;;;8.50;93.00;;;;;;4984920;28;20042;-77
2022/11/25 08:08:56;;;;;;;28.23;13.68;;;8.40;93.00;;;;;;4988280;28;20109;-76
2022/11/25 08:11:29;;;;;;;27.05;20.48;;;8.50;93.00;;;;;;4992990;28;20111;-75
2022/11/25 08:13:55;;;;;;;21.63;12.15;;;8.40;93.00;;;;;;5000825;28;20029;-75
2022/11/25 08:16:23;;;;;;;20.25;10.32;;;8.40;93.00;;;;;;4992201;28;20467;-76
2022/11/25 08:18:49;;;;;;;22.13;15.07;;;8.40;93.10;;;;;;4985518;28;20042;-76
2022/11/25 08:21:16;;;;;;;13.90;7.68;;;8.40;93.10;;;;;;4983526;28;20663;-76
2022/11/25 08:23:43;;;;;;;35.30;20.60;;;8.40;93.10;;;;;;4989196;28;20356;-75
2022/11/25 08:26:21;;;;;;;23.80;12.70;;;8.40;93.10;;;;;;4986034;28;20042;-75
2022/11/25 08:28:48;;;;;;;35.15;19.67;;;8.30;93.20;;;;;;4988283;28;20073;-74
2022/11/25 08:31:20;;;;;;;23.88;12.38;;;8.40;93.20;;;;;;4985910;28;20546;-75
2022/11/25 08:33:46;;;;;;;19.65;10.48;;;8.40;93.20;;;;;;4989444;28;20057;-75
2022/11/25 08:36:12;;;;;;;24.50;14.68;;;8.40;93.10;;;;;;4988286;28;20418;-76
2022/11/25 08:38:39;;;;;;;24.15;9.23;;;8.40;93.10;;;;;;4986807;28;20424;-75
2022/11/25 08:41:11;;;;;;;21.05;8.23;;;8.40;93.00;;;;;;4988949;28;20576;-75
2022/11/25 08:43:37;;;;;;;19.42;6.53;;;8.50;93.20;;;;;;4991566;28;20030;-75
2022/11/25 08:46:08;;;;;;;19.20;6.50;;;8.60;93.30;;;;;;4992594;28;20203;-75
2022/11/25 08:48:34;;;;;;;18.35;6.00;;;8.80;93.40;;;;;;4987785;28;20031;-75
2022/11/25 08:51:00;;;;;;;19.08;6.75;;;9.00;93.40;;;;;;4988259;28;20046;-75
2022/11/25 08:53:26;;;;;;;19.98;5.85;;;9.10;93.00;;;;;;4989190;28;20045;-75
2022/11/25 08:55:52;;;;;;;17.27;6.18;;;9.30;92.90;;;;;;4992245;28;20038;-74
2022/11/25 08:58:18;;;;;;;14.40;5.35;;;9.40;92.50;;;;;;4988055;28;20034;-76
2022/11/25 09:00:44;;;;;;;17.88;7.15;;;9.40;91.90;;;;;;4994966;28;20026;-77
2022/11/25 09:03:10;;;;;;;20.52;6.25;;;9.30;91.50;;;;;;4991676;28;20042;-77
2022/11/25 09:05:41;;;;;;;13.60;5.65;;;9.20;91.50;;;;;;4989608;28;20345;-76
2022/11/25 09:08:09;;;;;;;20.55;5.95;;;9.30;91.60;;;;;;4993350;28;20027;-75
2022/11/25 09:10:35;;;;;;;14.70;5.57;;;9.40;91.60;;;;;;4987870;28;20038;-74
2022/11/25 09:13:01;;;;;;;15.27;6.72;;;9.50;91.40;;;;;;5002939;28;20502;-77
2022/11/25 09:15:27;;;;;;;19.05;7.28;;;9.50;91.30;;;;;;4992698;28;20046;-75
2022/11/25 09:18:01;;;;;;;15.93;6.25;;;9.60;91.20;;;;;;4996406;28;20470;-75
2022/11/25 09:20:27;;;;;;;16.48;5.72;;;9.70;91.10;;;;;;4994434;28;20046;-75
2022/11/25 09:22:53;;;;;;;14.98;5.65;;;9.80;90.90;;;;;;4986274;28;20440;-75
2022/11/25 09:25:21;;;;;;;14.68;6.13;;;10.00;90.60;;;;;;4992191;28;20132;-75
2022/11/25 09:27:48;;;;;;;15.02;5.63;;;10.00;90.20;;;;;;4989738;28;20030;-75
2022/11/25 09:30:14;;;;;;;16.45;6.50;;;10.10;90.00;;;;;;4990222;28;20029;-75
2022/11/25 09:32:40;;;;;;;16.38;5.82;;;10.20;89.60;;;;;;4992683;28;20178;-76
2022/11/25 09:35:06;;;;;;;16.92;6.25;;;10.20;89.30;;;;;;4998110;28;20382;-76
2022/11/25 09:37:32;;;;;;;16.15;6.85;;;10.30;89.10;;;;;;4995124;28;20037;-73
2022/11/25 09:39:58;;;;;;;19.13;6.70;;;10.40;88.70;;;;;;4992282;28;20718;-74
2022/11/25 09:48:22;;;;;;;;;;;10.70;87.80;;;;;;4995511;28;20046;-74
2022/11/25 09:51:13;;;;;;;14.93;6.18;;;10.80;87.50;;;;;;4995944;28;19964;-74
2022/11/25 09:53:53;;;;;;;16.75;6.13;;;10.90;87.10;;;;;;4986868;28;20133;-74
2022/11/25 09:56:33;;;;;;;19.10;6.95;;;10.90;87.20;;;;;;4989702;28;20031;-74
2022/11/25 09:59:18;;;;;;;20.75;6.22;;;11.10;87.30;;;;;;4991902;28;20352;-74
2022/11/25 10:01:50;;;;;;;;;;;11.10;86.90;;;;;;4994418;28;20050;-75
2022/11/25 10:04:24;;;;;;;17.02;5.40;;;11.10;86.70;;;;;;4990188;28;19921;-75
2022/11/25 10:06:59;;;;;;;19.92;6.50;;;11.10;86.50;;;;;;4989650;28;20117;-74
2022/11/25 10:09:28;;;;;;;14.05;6.10;;;11.20;86.40;;;;;;4994562;28;20125;-75
2022/11/25 10:11:58;;;;;;;17.35;5.88;;;11.30;86.20;;;;;;4996959;28;20077;-74
2022/11/25 10:14:46;;;;;;;18.58;5.65;;;11.40;85.70;;;;;;4990425;28;20087;-75
2022/11/25 10:17:35;;;;;;;15.80;5.18;;;11.40;85.80;;;;;;4990702;28;20045;-75
2022/11/25 10:20:13;;;;;;;13.60;4.35;;;11.50;85.60;;;;;;4992003;28;20049;-75
2022/11/25 10:22:43;;;;;;;14.35;4.72;;;11.60;85.40;;;;;;4988999;28;20048;-75
2022/11/25 10:25:19;;;;;;;12.50;4.53;;;11.60;84.90;;;;;;4992953;28;20026;-74
2022/11/25 10:27:54;;;;;;;14.10;4.65;;;11.50;84.20;;;;;;4992612;28;20113;-74
2022/11/25 10:30:24;;;;;;;12.57;4.28;;;11.60;84.50;;;;;;4989612;28;20404;-76
2022/11/25 10:33:14;;;;;;;15.05;4.20;;;11.60;84.00;;;;;;4991885;28;20046;-75
2022/11/25 10:35:57;;;;;;;10.30;3.80;;;11.60;83.80;;;;;;4979887;28;20046;-75
2022/11/25 10:38:35;;;;;;;16.60;3.90;;;11.80;83.30;;;;;;4994905;28;20042;-75
2022/11/25 10:41:03;;;;;;;15.88;4.28;;;11.90;82.90;;;;;;4993658;28;20030;-75
2022/11/25 10:43:30;;;;;;;13.48;3.85;;;11.90;82.90;;;;;;4995941;28;20095;-75
2022/11/25 10:46:15;;;;;;;19.77;5.35;;;12.10;82.30;;;;;;4990191;28;20022;-74
2022/11/25 10:48:57;;;;;;;12.75;3.53;;;12.10;81.90;;;;;;4985927;28;20126;-74
2022/11/25 10:51:36;;;;;;;14.20;3.45;;;12.10;81.90;;;;;;4993229;28;20141;-74
2022/11/25 10:54:18;;;;;;;14.05;4.10;;;12.20;81.20;;;;;;4992304;28;20042;-74
2022/11/25 10:56:59;;;;;;;14.20;5.30;;;12.30;81.10;;;;;;4982922;28;20376;-77
2022/11/25 10:59:30;;;;;;;15.32;4.68;;;12.30;80.90;;;;;;4991964;28;20033;-76
2022/11/25 11:02:18;;;;;;;13.82;4.13;;;12.30;81.50;;;;;;4988012;28;20062;-76
2022/11/25 11:05:15;;;;;;;17.80;4.60;;;12.40;80.70;;;;;;4985996;28;20064;-77
2022/11/25 11:07:44;;;;;;;16.15;4.32;;;12.10;81.50;;;;;;4996636;28;20609;-75
2022/11/25 11:10:24;;;;;;;15.23;4.68;;;12.10;81.30;;;;;;4991828;28;20034;-75
2022/11/25 11:13:05;;;;;;;16.90;4.80;;;12.10;81.80;;;;;;4988807;28;20038;-76
2022/11/25 11:15:40;;;;;;;20.70;5.47;;;12.00;81.30;;;;;;4984053;28;20038;-76
2022/11/25 11:18:26;;;;;;;13.25;4.40;;;12.00;81.70;;;;;;4987278;28;20085;-76
2022/11/25 11:20:58;;;;;;;15.65;4.47;;;12.10;81.60;;;;;;4988395;28;20045;-77
2022/11/25 11:23:26;;;;;;;15.43;4.57;;;12.20;81.70;;;;;;4987724;28;20042;-75
2022/11/25 11:25:57;;;;;;;12.50;4.55;;;12.10;81.40;;;;;;4986318;28;20117;-77
2022/11/25 11:28:35;;;;;;;16.25;4.57;;;12.30;81.60;;;;;;4985604;28;20114;-76
2022/11/25 11:31:06;;;;;;;17.48;5.20;;;12.30;81.00;;;;;;5001817;28;20467;-75
2022/11/25 11:33:58;;;;;;;16.90;5.45;;;12.30;81.60;;;;;;4985667;28;20042;-75
2022/11/25 11:36:29;;;;;;;19.10;5.63;;;12.50;81.60;;;;;;4980347;28;20049;-76
2022/11/25 11:39:12;;;;;;;16.60;5.03;;;12.50;81.00;;;;;;4983242;28;20497;-75
2022/11/25 11:41:53;;;;;;;18.38;5.15;;;12.60;80.50;;;;;;4986922;28;20046;-75
2022/11/25 11:44:58;;;;;;;16.08;4.93;;;12.50;80.80;;;;;;4984900;28;20108;-75
2022/11/25 11:47:59;;;;;;;17.85;5.30;;;12.60;80.50;;;;;;4978902;28;20468;-75
2022/11/25 11:50:32;;;;;;;17.05;5.10;;;12.60;81.00;;;;;;4983101;28;20499;-76
2022/11/25 11:53:27;;;;;;;16.77;5.83;;;12.60;81.10;;;;;;4990700;28;20057;-76
2022/11/25 11:55:53;;;;;;;;;;;12.70;81.00;;;;;;4991374;28;20038;-75
2022/11/25 11:58:43;;;;;;;17.92;5.90;;;12.80;80.60;;;;;;4989385;28;19917;-75
2022/11/25 12:01:42;;;;;;;16.17;4.40;;;12.60;80.90;;;;;;5007022;28;20080;-77
2022/11/25 12:04:29;;;;;;;17.95;4.88;;;12.70;80.80;;;;;;4986438;28;20030;-76
2022/11/25 12:07:25;;;;;;;16.50;5.30;;;12.70;80.90;;;;;;4988008;28;20161;-74
2022/11/25 12:09:57;;;;;;;17.67;5.80;;;12.70;81.10;;;;;;4987811;28;20053;-74
2022/11/25 12:12:32;;;;;;;18.98;4.65;;;12.70;81.30;;;;;;4992418;28;20113;-76
2022/11/25 12:15:36;;;;;;;19.48;5.30;;;12.70;81.30;;;;;;4983974;28;20030;-76
2022/11/25 12:18:47;;;;;;;19.63;5.10;;;12.50;81.50;;;;;;5005679;28;20073;-75
2022/11/25 12:21:25;;;;;;;17.85;4.50;;;12.50;82.10;;;;;;4985311;28;20039;-80
2022/11/25 12:24:05;;;;;;;16.77;4.65;;;12.60;81.80;;;;;;4990588;28;20029;-76
2022/11/25 12:26:43;;;;;;;17.35;4.63;;;12.80;82.10;;;;;;4986783;28;20468;-75
2022/11/25 12:29:18;;;;;;;20.00;4.60;;;13.00;81.00;;;;;;4991142;28;20034;-74
2022/11/25 12:31:51;;;;;;;18.10;4.35;;;13.00;80.50;;;;;;4990917;28;20474;-77
2022/11/25 12:34:29;;;;;;;20.48;5.00;;;13.00;80.10;;;;;;4993594;28;20046;-74
2022/11/25 12:37:04;;;;;;;22.98;4.78;;;13.00;80.60;;;;;;4989836;28;20038;-75
2022/11/25 12:39:38;;;;;;;19.92;5.07;;;12.90;80.70;;;;;;4986077;28;20031;-76
2022/11/25 12:42:17;;;;;;;20.02;5.18;;;13.00;80.50;;;;;;4981156;28;20043;-74
2022/11/25 12:45:13;;;;;;;18.45;4.55;;;13.10;80.60;;;;;;4990508;28;20084;-74
2022/11/25 12:47:38;;;;;;;;;;;13.10;80.40;;;;;;4980146;28;20061;-74
2022/11/25 12:50:05;;;;;;;19.02;5.53;;;13.10;80.20;;;;;;4982573;28;19914;-75
2022/11/25 12:52:59;;;;;;;18.88;5.18;;;13.00;80.40;;;;;;4982284;28;20039;-77
2022/11/25 12:55:26;;;;;;;18.02;5.70;;;12.90;81.50;;;;;;4986603;28;20104;-75
2022/11/25 12:58:22;;;;;;;17.77;5.07;;;12.80;81.60;;;;;;4991946;28;20076;-76
2022/11/25 13:04:42;;;;;;;19.00;5.97;;;12.20;82.40;;;;;;4920223;28;20053;-75
2022/11/25 13:07:39;;;;;;;19.42;5.32;;;12.10;82.80;;;;;;4986224;28;20041;-75
2022/11/25 13:10:14;;;;;;;23.92;7.13;;;11.90;83.00;;;;;;4989261;28;20039;-73
2022/11/25 13:12:46;;;;;;;;;;;12.00;82.70;;;;;;4986509;28;20100;-75
2022/11/25 13:15:17;;;;;;;18.08;4.90;;;12.10;82.70;;;;;;4992213;28;19913;-74
2022/11/25 13:17:46;;;;;;;22.83;5.32;;;12.10;82.70;;;;;;4987816;28;20510;-75
2022/11/25 13:20:38;;;;;;;19.75;4.95;;;12.20;82.40;;;;;;4984909;28;20054;-74
2022/11/25 13:23:21;;;;;;;19.85;4.57;;;12.30;82.20;;;;;;4987148;28;20037;-74